Flight Track Log - Related Links

Times and Time Zones

All times are in EDT time to prevent confusion due to time zone crossing. See the ASQ5941 flight status page for this flight to view local times or setup timezone preferences in your user account.

Time Position Orientation Groundspeed Altitude Reporting Facility
EDT Latitude Longitude Course Direction KTS MPH feet Rate Location/Type
Mon 05:10:00 PM 41.3833 -76.1514 307° West  Level Estimated
Mon 05:11:00 PM 41.3942 -76.2585 307° West  Level Estimated
Mon 05:11:39 PM 41.4353 -75.8597 North 285 328 8,000  Level New York Center
Mon 05:12:00 PM 41.4690 -76.3005 337° Northwest  Level FlightAware Approximate
Mon 05:12:39 PM 41.5033 -75.8261 20° North 293 337 8,800  Level New York Center
Mon 05:13:00 PM 41.4791 -76.4078 289° West  Level Estimated
Mon 05:13:39 PM 41.5831 -75.7628 31° Northeast 293 337 10,300  Level New York Center
Mon 05:14:00 PM 41.4892 -76.5152 291° West  Level Estimated
Mon 05:14:39 PM 41.6542 -75.7044 31° Northeast 299 344 12,200  Level New York Center
Mon 05:15:00 PM 41.4992 -76.6227 287° West  Level Estimated
Mon 05:15:39 PM 41.7317 -75.6433 30° Northeast 308 354 14,300  Level New York Center
Mon 05:16:39 PM 41.8008 -75.6819 337° Northwest 255 293 16,000 1,250 Climbing New York Center
Mon 05:17:39 PM 41.8211 -75.8003 283° West 250 288 16,800 850 Climbing New York Center
Mon 05:18:39 PM 41.8469 -75.9247 286° West 309 356 17,700 800 Climbing New York Center
Mon 05:19:39 PM 41.8725 -76.0519 285° West 354 407 18,400 800 Climbing New York Center
Mon 05:20:39 PM 41.8983 -76.1711 286° West 365 420 19,300 950 Climbing New York Center
Mon 05:21:39 PM 41.9275 -76.3072 286° West 370 426 20,300 1,000 Climbing New York Center
Mon 05:22:39 PM 41.9567 -76.4436 286° West 376 433 21,300 950 Climbing New York Center
Mon 05:23:39 PM 41.9811 -76.5825 283° West 381 438 22,200 1,000 Climbing New York Center
Mon 05:24:39 PM 42.0097 -76.7189 286° West 381 438 23,300 1,064 Climbing New York Center
Mon 05:26:00 PM 42.0497 -76.9225 285° West 376 433 24,700 979 Climbing Cleveland Center
Mon 05:27:00 PM 42.0789 -77.0581 286° West 376 433 25,600 950 Climbing Cleveland Center
Mon 05:28:00 PM 42.1061 -77.1964 285° West 376 433 26,600 1,000 Climbing Cleveland Center
Mon 05:29:00 PM 42.1331 -77.3322 285° West 376 433 27,600 700 Climbing Cleveland Center
Mon 05:30:00 PM 42.1578 -77.4739 283° West 376 433 28,000 200 Climbing Cleveland Center
Mon 05:31:00 PM 42.1867 -77.6183 285° West 387 445 28,000  Level Cleveland Center
Mon 05:32:00 PM 42.2153 -77.7711 284° West 405 466 28,000  Level Cleveland Center
Mon 05:33:00 PM 42.2461 -77.9214 286° West 412 474 28,000  Level Cleveland Center
Mon 05:34:00 PM 42.2744 -78.0717 284° West 412 474 28,000  Level Cleveland Center
Mon 05:35:00 PM 42.3028 -78.2222 284° West 412 474 28,000  Level Cleveland Center
Mon 05:36:00 PM 42.3261 -78.3561 283° West 412 474 28,000  Level Cleveland Center
Mon 05:37:00 PM 42.3539 -78.5067 284° West 412 474 28,000  Level Cleveland Center
Mon 05:38:00 PM 42.3817 -78.6606 284° West 417 480 28,000  Level Cleveland Center
Mon 05:39:00 PM 42.4111 -78.8114 285° West 417 480 28,000  Level Cleveland Center
Mon 05:40:00 PM 42.4386 -78.9850 282° West 426 490 28,000  Level Cleveland Center
Mon 05:41:00 PM 42.4633 -79.1197 284° West 426 490 28,000  Level Cleveland Center
Mon 05:42:00 PM 42.4925 -79.2767 284° West 426 490 28,000  Level Cleveland Center
Mon 05:43:00 PM 42.5003 -79.4342 274° West 426 490 28,000  Level Cleveland Center
Mon 05:44:00 PM 42.5081 -79.5917 274° West 426 490 28,000  Level Cleveland Center
Mon 05:45:00 PM 42.5156 -79.7578 274° West 426 490 28,000  Level Cleveland Center
Mon 05:46:00 PM 42.5250 -79.9156 275° West 426 490 28,000  Level Cleveland Center
Mon 05:47:00 PM 42.5278 -80.0817 271° West 431 496 28,000  Level Cleveland Center
Mon 05:48:00 PM 42.5347 -80.2564 273° West 431 496 28,000  Level Cleveland Center
Mon 05:49:00 PM 42.5414 -80.4225 273° West 436 502 28,000  Level Cleveland Center
Mon 05:50:00 PM 42.5497 -80.5831 274° West 436 502 28,000  Level Cleveland Center
Mon 05:51:00 PM 42.5558 -80.7439 273° West 436 502 28,000  Level Cleveland Center
Mon 05:52:00 PM 42.5619 -80.9044 273° West 436 502 28,000  Level Cleveland Center
Mon 05:53:00 PM 42.5656 -81.0597 272° West 421 484 28,000  Level Cleveland Center
Mon 05:54:00 PM 42.5731 -81.2147 274° West 421 484 28,000  Level Cleveland Center
Mon 05:55:00 PM 42.5764 -81.3756 272° West 421 484 28,000  Level Cleveland Center
Mon 05:56:00 PM 42.5961 -81.5222 280° West 421 484 28,000  Level Cleveland Center
Mon 05:57:00 PM 42.6239 -81.6753 284° West 409 471 28,000  Level Cleveland Center
Mon 05:58:00 PM 42.6472 -81.8222 282° West 403 464 28,000  Level Cleveland Center
Mon 05:59:00 PM 42.6728 -81.9697 283° West 403 464 28,000  Level Cleveland Center
Mon 06:00:00 PM 42.6981 -82.1200 283° West 403 464 28,000  Level Cleveland Center
Mon 06:01:00 PM 42.7250 -82.2675 284° West 409 471 28,000  Level Cleveland Center
Mon 06:02:00 PM 42.7436 -82.4208 279° West 414 476 28,000  Level Cleveland Center
Mon 06:03:00 PM 42.7539 -82.5569 276° West 414 476 28,000  Level Cleveland Center
Mon 06:04:00 PM 42.7636 -82.7100 275° West 414 476 28,000  Level Cleveland Center
Mon 06:05:00 PM 42.7753 -82.8631 276° West 408 470 28,000  Level Cleveland Center
Mon 06:06:00 PM 42.7867 -83.0161 276° West 408 470 28,000  Level Cleveland Center
Mon 06:07:00 PM 42.7958 -83.1750 275° West 413 475 28,000  Level Cleveland Center
Mon 06:08:00 PM 42.8089 -83.3314 277° West 418 481 28,000  Level Cleveland Center
Mon 06:09:00 PM 42.8175 -83.4875 274° West 418 481 28,000  Level Cleveland Center
Mon 06:10:00 PM 42.8300 -83.6494 276° West 424 488 28,000  Level Cleveland Center
Mon 06:11:00 PM 42.8403 -83.8083 275° West 424 488 28,000  Level Cleveland Center
Mon 06:12:00 PM 42.8461 -83.9703 273° West 424 488 28,000  Level Cleveland Center
Mon 06:13:00 PM 42.8558 -84.1322 275° West 424 488 28,000  Level Cleveland Center
Mon 06:14:00 PM 42.8672 -84.2944 276° West 424 488 28,000  Level Cleveland Center
Mon 06:14:37 PM 42.8739 -84.3947 275° West 428 493 28,000  Level Chicago Center
Mon 06:15:39 PM 42.8836 -84.5569 275° West 429 494 28,000  Level Chicago Center
Mon 06:16:41 PM 42.8697 -84.7186 263° West 430 495 28,000  Level Chicago Center
Mon 06:17:43 PM 42.8528 -84.8819 262° West 436 502 28,000  Level Chicago Center
Mon 06:18:45 PM 42.8322 -85.0769 262° West 434 499 28,000  Level Chicago Center
Mon 06:19:48 PM 42.8144 -85.2417 262° West 438 504 28,000  Level Chicago Center
Mon 06:20:50 PM 42.7961 -85.4042 261° West 436 502 28,000  Level Chicago Center
Mon 06:21:52 PM 42.7739 -85.5681 260° West 436 502 28,000 -242 Level Chicago Center
Mon 06:22:54 PM 42.7422 -85.7497 257° West 441 507 27,500 -1,210 Descending Chicago Center
Mon 06:23:56 PM 42.7150 -85.8958 256° West 444 511 25,500 -2,081 Descending Chicago Center
Mon 06:24:58 PM 42.6853 -86.0567 256° West 438 504 23,200 -2,468 Descending Chicago Center
Mon 06:26:00 PM 42.6514 -86.2431 256° West 424 488 20,400 -1,742 Descending Chicago Center
Mon 06:27:02 PM 42.6247 -86.3881 256° West 402 463 19,600 -1,355 Descending Chicago Center
Mon 06:28:04 PM 42.5981 -86.5300 256° West 390 449 17,600 -2,032 Descending Chicago Center
Mon 06:29:06 PM 42.5717 -86.6708 256° West 387 445 15,400 -1,935 Descending Chicago Center
Mon 06:30:08 PM 42.5408 -86.8019 252° West 369 425 13,600 -1,694 Descending Chicago Center
Mon 06:31:10 PM 42.5050 -86.9286 249° West 364 419 11,900 -1,694 Descending Chicago Center
Mon 06:32:12 PM 42.4639 -87.0814 250° West 360 414 10,100 -919 Descending Chicago Center
Mon 06:33:14 PM 42.4317 -87.2000 250° West 344 396 10,000 -484 Descending Chicago Center
Mon 06:34:16 PM 42.4042 -87.2961 249° West 285 328 9,100 -484 Descending Chicago Center
Mon 06:35:18 PM 42.3800 -87.3892 251° West 264 304 9,000 -629 Descending Chicago Center
Mon 06:36:20 PM 42.3583 -87.4669 249° West 233 268 7,800 -968 Descending Chicago Center
Mon 06:37:22 PM 42.3239 -87.5531 242° Southwest 225 259 7,000 -672 Descending Chicago Center
Mon 06:38:25 PM 42.2739 -87.6031 217° Southwest 224 258 6,400 -912 Descending Chicago Center
Mon 06:39:27 PM 42.2236 -87.6519 216° Southwest 223 257 5,100 -726 Descending Chicago Center
Mon 06:40:29 PM 42.1756 -87.6983 216° Southwest 218 251 4,900 -484 Descending Chicago Center
Mon 06:41:31 PM 42.1383 -87.7433 222° Southwest 199 229 4,100 -919 Descending Chicago Center
Mon 06:42:33 PM 42.0953 -87.7906 219° Southwest 180 207 3,000 -919 Descending Chicago Center
Mon 06:43:35 PM 42.0603 -87.8283 219° Southwest 170 196 2,200 -726 Descending Chicago Center
Mon 06:44:37 PM 42.0308 -87.8608 219° Southwest 155 178 1,500 -694 Descending Chicago Center
Mon 06:45:36 PM 42.0000 -87.9000 223° Southwest 134 154 800 -712 Descending Chicago TRACON

Login

Don't have an account? Register now (free) for customized features, flight alerts, and more!